createdAt,value
2023-02-11T00:01:29.785Z,24.33
2023-02-11T00:03:58.760Z,26.47
2023-02-11T00:06:29.747Z,25.50
2023-02-11T00:08:59.275Z,25.60
2023-02-11T00:11:30.350Z,24.90
2023-02-11T00:13:59.178Z,23.77
2023-02-11T00:16:29.527Z,26.43
2023-02-11T00:18:58.285Z,26.07
2023-02-11T00:21:28.077Z,26.00
2023-02-11T00:23:59.600Z,26.23
2023-02-11T00:26:31.718Z,25.17
2023-02-11T00:29:00.825Z,24.50
2023-02-11T00:31:31.017Z,27.23
2023-02-11T00:33:59.219Z,23.40
2023-02-11T00:36:30.271Z,27.83
2023-02-11T00:38:59.858Z,23.80
2023-02-11T00:41:28.157Z,25.27
2023-02-11T00:43:56.367Z,23.90
2023-02-11T00:46:24.974Z,23.90
2023-02-11T00:48:57.638Z,25.77
2023-02-11T00:51:26.421Z,25.83
2023-02-11T00:53:54.686Z,25.10
2023-02-11T00:56:23.105Z,22.40
2023-02-11T00:58:51.235Z,25.40
2023-02-11T01:01:19.447Z,26.67
2023-02-11T01:03:48.084Z,27.57
2023-02-11T01:06:17.835Z,27.83
2023-02-11T01:08:46.129Z,26.80
2023-02-11T01:11:17.931Z,27.10
2023-02-11T01:13:47.412Z,28.10
2023-02-11T01:16:16.288Z,25.43
2023-02-11T01:18:44.824Z,25.77
2023-02-11T01:21:13.446Z,27.17
2023-02-11T01:23:42.954Z,26.10
2023-02-11T01:26:11.062Z,24.43
2023-02-11T01:28:40.013Z,26.27
2023-02-11T01:31:08.502Z,26.07
2023-02-11T01:33:36.703Z,26.33
2023-02-11T01:36:07.416Z,28.40
2023-02-11T01:38:36.947Z,26.70
2023-02-11T01:41:10.483Z,27.30
2023-02-11T01:43:43.948Z,27.93
2023-02-11T01:46:35.880Z,25.83
2023-02-11T01:49:10.524Z,26.03
2023-02-11T01:51:44.951Z,26.77
2023-02-11T01:54:38.293Z,25.00
2023-02-11T01:57:24.952Z,24.60
2023-02-11T02:00:11.817Z,25.43
2023-02-11T02:02:51.433Z,26.37
2023-02-11T02:05:33.253Z,25.77
2023-02-11T02:08:10.831Z,26.57
2023-02-11T02:10:45.061Z,24.33
2023-02-11T02:13:15.535Z,23.73
2023-02-11T02:15:51.150Z,24.43
2023-02-11T02:18:42.041Z,24.40
2023-02-11T02:21:53.182Z,24.07
2023-02-11T02:25:01.041Z,26.67
2023-02-11T02:27:42.889Z,27.60
2023-02-11T02:30:56.752Z,25.63
2023-02-11T02:33:54.595Z,23.83
2023-02-11T02:36:33.372Z,28.23
2023-02-11T02:39:08.711Z,27.40
2023-02-11T02:41:40.503Z,24.53
2023-02-11T02:44:09.617Z,24.53
2023-02-11T02:46:38.489Z,24.87
2023-02-11T02:49:15.249Z,25.57
2023-02-11T02:52:23.084Z,25.10
2023-02-11T02:55:23.230Z,24.60
2023-02-11T02:58:19.719Z,23.97
2023-02-11T03:01:04.665Z,24.37
2023-02-11T03:03:45.191Z,24.63
2023-02-11T03:06:25.379Z,26.37
2023-02-11T03:09:02.161Z,26.00
2023-02-11T03:11:30.793Z,26.13
2023-02-11T03:14:04.329Z,26.97
2023-02-11T03:16:39.058Z,24.37
2023-02-11T03:19:14.642Z,25.47
2023-02-11T03:21:46.069Z,25.20
2023-02-11T03:24:21.470Z,26.00
2023-02-11T03:26:54.686Z,28.60
2023-02-11T03:29:36.295Z,25.50
2023-02-11T03:32:16.469Z,28.33
2023-02-11T03:34:50.948Z,30.10
2023-02-11T03:37:28.425Z,29.93
2023-02-11T03:40:09.326Z,25.90
2023-02-11T03:42:44.745Z,26.87
2023-02-11T03:45:17.696Z,28.83
2023-02-11T03:47:51.938Z,26.30
2023-02-11T03:50:23.109Z,29.83
2023-02-11T03:52:55.176Z,28.13
2023-02-11T03:55:27.430Z,28.77
2023-02-11T03:57:55.573Z,26.17
2023-02-11T04:00:32.181Z,27.17
2023-02-11T04:03:00.344Z,29.67
2023-02-11T04:05:28.480Z,30.40
2023-02-11T04:07:57.968Z,29.03
2023-02-11T04:10:26.518Z,28.73
2023-02-11T04:12:54.881Z,26.27
2023-02-11T04:15:23.049Z,28.00
2023-02-11T04:17:51.476Z,27.90
2023-02-11T04:20:20.192Z,30.87
2023-02-11T04:22:48.387Z,25.13
2023-02-11T04:25:18.099Z,29.70
2023-02-11T04:27:46.208Z,26.23
2023-02-11T04:30:15.101Z,29.40
2023-02-11T04:32:44.564Z,27.27
2023-02-11T04:35:12.733Z,26.67
2023-02-11T04:37:40.916Z,27.33
2023-02-11T04:40:10.753Z,27.40
2023-02-11T04:42:40.258Z,27.80
2023-02-11T04:45:09.693Z,29.20
2023-02-11T04:47:38.041Z,26.30
2023-02-11T04:50:07.112Z,30.63
2023-02-11T04:52:35.413Z,28.90
2023-02-11T04:55:03.588Z,28.70
2023-02-11T04:57:31.782Z,27.03
2023-02-11T05:00:01.289Z,28.17
2023-02-11T05:02:29.464Z,26.77
2023-02-11T05:04:57.637Z,28.60
2023-02-11T05:07:25.873Z,26.87
2023-02-11T05:09:54.113Z,27.57
2023-02-11T05:12:22.281Z,27.23
2023-02-11T05:14:50.414Z,30.90
2023-02-11T05:17:19.906Z,27.80
2023-02-11T05:19:47.984Z,30.47
2023-02-11T05:22:16.098Z,28.40
2023-02-11T05:24:44.204Z,29.47
2023-02-11T05:27:12.320Z,26.80
2023-02-11T05:29:40.460Z,29.43
2023-02-11T05:32:09.042Z,27.67
2023-02-11T05:34:38.591Z,31.33
2023-02-11T05:37:07.416Z,28.10
2023-02-11T05:39:35.641Z,29.53
2023-02-11T05:42:03.952Z,31.10
2023-02-11T05:44:32.194Z,28.40
2023-02-11T05:47:00.340Z,30.77
2023-02-11T05:49:28.427Z,32.43
2023-02-11T05:51:57.954Z,30.67
2023-02-11T05:54:26.212Z,30.17
2023-02-11T05:56:54.467Z,30.80
2023-02-11T05:59:22.645Z,29.47
2023-02-11T06:01:50.749Z,31.40
2023-02-11T06:04:18.863Z,31.93
2023-02-11T06:06:47.023Z,27.70
2023-02-11T06:09:16.488Z,29.77
2023-02-11T06:11:44.614Z,31.23
2023-02-11T06:14:12.718Z,31.07
2023-02-11T06:16:40.984Z,34.73
2023-02-11T06:19:09.096Z,33.67
2023-02-11T06:21:43.904Z,33.17
2023-02-11T06:24:13.217Z,30.57
2023-02-11T06:26:42.881Z,32.27
2023-02-11T06:29:11.593Z,35.17
2023-02-11T06:31:39.972Z,37.33
2023-02-11T06:34:08.434Z,33.53
2023-02-11T06:36:37.580Z,36.07
2023-02-11T06:39:06.317Z,32.30
2023-02-11T06:41:34.644Z,32.67
2023-02-11T06:44:04.382Z,32.60
2023-02-11T06:46:32.676Z,31.23
2023-02-11T06:49:00.863Z,34.50
2023-02-11T06:51:29.342Z,32.60
2023-02-11T06:53:57.551Z,35.20
2023-02-11T06:56:27.384Z,30.80
2023-02-11T06:58:56.600Z,35.00
2023-02-11T07:01:27.860Z,33.10
2023-02-11T07:03:56.084Z,32.67
2023-02-11T07:06:28.130Z,37.03
2023-02-11T07:08:57.378Z,33.07
2023-02-11T07:11:29.271Z,37.50
2023-02-11T07:14:02.054Z,36.03
2023-02-11T07:16:32.274Z,34.57
2023-02-11T07:19:00.408Z,33.77
2023-02-11T07:21:28.722Z,32.97
2023-02-11T07:23:56.870Z,33.93
2023-02-11T07:26:27.054Z,31.03
2023-02-11T07:28:55.233Z,33.63
2023-02-11T07:31:27.112Z,33.00
2023-02-11T07:33:59.831Z,32.33
2023-02-11T07:36:30.141Z,34.53
2023-02-11T07:38:58.424Z,32.37
2023-02-11T07:41:28.838Z,36.47
2023-02-11T07:43:57.000Z,31.10
2023-02-11T07:46:28.053Z,34.70
2023-02-11T07:48:57.793Z,35.77
2023-02-11T07:51:28.734Z,30.30
2023-02-11T07:53:59.779Z,31.90
2023-02-11T07:56:30.248Z,30.57
2023-02-11T07:59:03.124Z,32.60
2023-02-11T08:01:32.294Z,37.20
2023-02-11T08:04:04.350Z,34.67
2023-02-11T08:06:35.316Z,31.33
2023-02-11T08:09:08.858Z,34.87
2023-02-11T08:11:37.959Z,33.13
2023-02-11T08:14:06.328Z,33.10
2023-02-11T08:16:37.017Z,32.63
2023-02-11T08:19:13.603Z,31.60
2023-02-11T08:21:43.036Z,32.73
2023-02-11T08:24:11.920Z,30.07
2023-02-11T08:26:40.309Z,31.33
2023-02-11T08:29:11.964Z,31.67
2023-02-11T08:31:44.640Z,33.13
2023-02-11T08:34:18.964Z,32.97
2023-02-11T08:36:49.043Z,31.23
2023-02-11T08:39:20.774Z,32.27
2023-02-11T08:41:51.358Z,30.67
2023-02-11T08:44:21.716Z,30.33
2023-02-11T08:46:51.210Z,31.63
2023-02-11T08:49:21.149Z,33.47
2023-02-11T08:51:51.142Z,35.20
2023-02-11T08:54:19.467Z,30.90
2023-02-11T08:56:52.472Z,32.47
2023-02-11T08:59:20.512Z,32.03
2023-02-11T09:01:48.734Z,32.97
2023-02-11T09:04:20.113Z,31.43
2023-02-11T09:06:48.324Z,31.47
2023-02-11T09:09:17.444Z,30.27
2023-02-11T09:11:46.803Z,31.83
2023-02-11T09:14:20.278Z,29.83
2023-02-11T09:16:49.439Z,29.63
2023-02-11T09:19:18.848Z,29.77
2023-02-11T09:21:48.653Z,28.50
2023-02-11T09:24:16.939Z,31.93
2023-02-11T09:26:45.315Z,30.13
2023-02-11T09:29:13.974Z,30.07
2023-02-11T09:31:42.288Z,29.13
2023-02-11T09:34:11.821Z,30.47
2023-02-11T09:36:41.874Z,32.77
2023-02-11T09:39:16.831Z,29.07
2023-02-11T09:42:34.519Z,32.00
2023-02-11T09:45:04.058Z,30.10
2023-02-11T09:47:37.143Z,29.93
2023-02-11T09:50:11.589Z,29.93
2023-02-11T09:52:48.005Z,30.30
2023-02-11T09:55:26.429Z,28.77
2023-02-11T09:57:55.174Z,31.73
2023-02-11T10:00:29.635Z,28.63
2023-02-11T10:03:48.122Z,28.20
2023-02-11T10:06:37.655Z,26.93
2023-02-11T10:09:35.067Z,27.67
2023-02-11T10:12:31.435Z,28.93
2023-02-11T10:15:17.366Z,27.43
2023-02-11T10:18:04.043Z,28.87
2023-02-11T10:20:39.146Z,27.97
2023-02-11T10:23:16.674Z,25.63
2023-02-11T10:25:49.689Z,26.47
2023-02-11T10:28:22.429Z,26.63
2023-02-11T10:30:59.886Z,26.93
2023-02-11T10:33:32.583Z,28.03
2023-02-11T10:36:01.381Z,26.53
2023-02-11T10:38:29.739Z,28.57
2023-02-11T10:40:57.880Z,26.77
2023-02-11T10:43:31.540Z,26.97
2023-02-11T10:46:03.875Z,29.10
2023-02-11T10:48:49.354Z,32.93
2023-02-11T10:51:22.522Z,28.30
2023-02-11T10:54:13.808Z,25.97
2023-02-11T10:56:47.344Z,27.07
2023-02-11T10:59:28.258Z,26.47
2023-02-11T11:02:01.627Z,27.40
2023-02-11T11:04:41.393Z,27.17
2023-02-11T11:07:19.511Z,23.87
2023-02-11T11:09:52.690Z,24.20
2023-02-11T11:12:49.358Z,25.13
2023-02-11T11:15:23.905Z,27.13
2023-02-11T11:18:20.870Z,26.33
2023-02-11T11:21:00.735Z,25.57
2023-02-11T11:23:31.725Z,32.17
2023-02-11T11:26:06.157Z,28.27
2023-02-11T11:28:41.750Z,26.43
2023-02-11T11:31:19.909Z,26.53
2023-02-11T11:33:50.059Z,27.73
2023-02-11T11:36:24.318Z,26.57
2023-02-11T11:38:58.511Z,29.67
2023-02-11T11:41:30.578Z,25.67
2023-02-11T11:44:18.425Z,25.17
2023-02-11T11:46:56.840Z,26.90
2023-02-11T11:49:33.946Z,25.67
2023-02-11T11:52:19.188Z,25.20
2023-02-11T11:54:56.518Z,25.43
2023-02-11T11:57:30.565Z,24.90
2023-02-11T12:00:00.033Z,25.70
2023-02-11T12:03:36.581Z,25.70
2023-02-11T12:06:25.776Z,24.63
2023-02-11T12:09:10.678Z,25.33
2023-02-11T12:12:06.530Z,28.33
2023-02-11T12:14:50.436Z,26.47
2023-02-11T12:17:42.308Z,25.90
2023-02-11T12:20:33.058Z,27.03
2023-02-11T12:23:22.617Z,26.23
2023-02-11T12:26:05.655Z,27.83
2023-02-11T12:28:49.957Z,25.07
2023-02-11T12:31:40.444Z,27.60
2023-02-11T12:34:45.401Z,26.97
2023-02-11T12:37:30.379Z,27.20
2023-02-11T12:40:15.164Z,26.03
2023-02-11T12:43:17.411Z,28.20
2023-02-11T12:46:09.271Z,26.30
2023-02-11T12:49:04.326Z,25.83
2023-02-11T12:51:54.007Z,28.47
2023-02-11T12:54:31.337Z,29.10
2023-02-11T12:57:07.150Z,24.83
2023-02-11T12:59:48.552Z,30.10
2023-02-11T13:02:29.877Z,28.17
2023-02-11T13:05:06.230Z,27.03
2023-02-11T13:07:43.917Z,26.93
2023-02-11T13:10:29.721Z,26.77
2023-02-11T13:13:17.346Z,27.57
2023-02-11T13:15:52.564Z,27.33
2023-02-11T13:18:49.276Z,28.70
2023-02-11T13:21:52.948Z,27.17
2023-02-11T13:24:32.137Z,29.00
2023-02-11T13:27:16.144Z,26.87
2023-02-11T13:30:22.481Z,26.40
2023-02-11T13:33:32.687Z,27.27
2023-02-11T13:36:23.390Z,26.27
2023-02-11T13:39:05.806Z,27.57
2023-02-11T13:41:42.221Z,29.17
2023-02-11T13:44:27.274Z,25.97
2023-02-11T13:47:01.316Z,25.40
2023-02-11T13:49:36.651Z,26.87
2023-02-11T13:52:17.423Z,26.93
2023-02-11T13:54:52.685Z,30.90
2023-02-11T13:57:33.842Z,27.03
2023-02-11T14:00:23.722Z,25.60
2023-02-11T14:03:42.161Z,27.77
2023-02-11T14:06:38.431Z,25.00
2023-02-11T14:09:42.073Z,28.20
2023-02-11T14:12:35.745Z,26.20
2023-02-11T14:17:57.260Z,24.60
2023-02-11T14:20:44.504Z,26.53
2023-02-11T14:23:28.387Z,26.83
2023-02-11T14:26:23.052Z,26.70
2023-02-11T14:29:01.136Z,26.27
2023-02-11T14:31:39.802Z,27.70
2023-02-11T14:34:44.878Z,25.47
2023-02-11T14:37:32.311Z,26.20
2023-02-11T14:40:16.380Z,26.90
2023-02-11T14:42:45.003Z,26.03
2023-02-11T14:45:20.881Z,28.00
2023-02-11T14:48:00.127Z,25.73
2023-02-11T14:50:39.795Z,25.43
2023-02-11T14:53:16.305Z,26.93
2023-02-11T14:55:50.788Z,27.83
2023-02-11T14:58:21.993Z,25.47
2023-02-11T15:00:57.638Z,25.33
2023-02-11T15:03:33.146Z,25.80
2023-02-11T15:06:07.798Z,24.67
2023-02-11T15:08:43.197Z,24.73
2023-02-11T15:11:16.633Z,24.70
2023-02-11T15:13:47.923Z,23.83
2023-02-11T15:16:21.648Z,22.37
2023-02-11T15:18:53.722Z,25.73
2023-02-11T15:21:26.860Z,22.00
2023-02-11T15:24:01.219Z,23.77
2023-02-11T15:26:30.726Z,22.80
2023-02-11T15:28:58.904Z,23.57
2023-02-11T15:31:29.843Z,24.53
2023-02-11T15:34:09.417Z,22.10
2023-02-11T15:36:39.686Z,22.27
2023-02-11T15:39:19.412Z,25.37
2023-02-11T15:41:47.582Z,20.67
2023-02-11T15:44:30.666Z,21.83
2023-02-11T15:46:59.661Z,20.70
2023-02-11T15:49:28.396Z,23.17
2023-02-11T15:51:59.046Z,23.20
2023-02-11T15:54:32.035Z,21.30
2023-02-11T15:57:05.543Z,22.50
2023-02-11T15:59:39.088Z,20.97
2023-02-11T16:02:15.632Z,23.27
2023-02-11T16:04:52.192Z,19.43
2023-02-11T16:07:45.375Z,20.80
2023-02-11T16:10:25.556Z,21.03
2023-02-11T16:13:16.753Z,20.23
2023-02-11T16:15:52.397Z,20.83
2023-02-11T16:19:03.368Z,19.67
2023-02-11T16:21:38.885Z,21.53
2023-02-11T16:24:21.313Z,18.30
2023-02-11T16:26:54.311Z,21.17
2023-02-11T16:29:28.260Z,19.23
2023-02-11T16:32:09.493Z,22.50
2023-02-11T16:34:38.120Z,19.63
2023-02-11T16:37:07.326Z,19.17
2023-02-11T16:39:37.450Z,17.27
2023-02-11T16:42:07.596Z,20.37
2023-02-11T16:44:36.401Z,20.30
2023-02-11T16:47:08.443Z,19.17
2023-02-11T16:49:41.703Z,18.70
2023-02-11T16:52:17.070Z,20.40
2023-02-11T16:54:46.624Z,20.20
2023-02-11T16:57:17.539Z,20.13
2023-02-11T16:59:46.484Z,18.80
2023-02-11T17:02:21.658Z,20.67
2023-02-11T17:04:51.616Z,18.00
2023-02-11T17:07:19.754Z,18.17
2023-02-11T17:09:49.448Z,19.47
2023-02-11T17:12:17.552Z,18.80
2023-02-11T17:14:45.761Z,20.10
2023-02-11T17:17:14.796Z,21.07
2023-02-11T17:19:42.944Z,16.47
2023-02-11T17:22:12.598Z,18.20
2023-02-11T17:24:40.826Z,19.47
2023-02-11T17:27:11.918Z,20.87
2023-02-11T17:29:40.093Z,19.67
2023-02-11T17:32:08.255Z,18.40
2023-02-11T17:34:36.446Z,18.27
2023-02-11T17:37:09.052Z,19.63
2023-02-11T17:39:37.395Z,18.40
2023-02-11T17:42:06.936Z,17.63
2023-02-11T17:44:37.264Z,19.97
2023-02-11T17:47:05.540Z,20.30
2023-02-11T17:49:33.704Z,19.30
2023-02-11T17:52:01.921Z,23.50
2023-02-11T17:54:30.068Z,22.50
2023-02-11T17:56:58.688Z,19.50
2023-02-11T17:59:31.578Z,21.37
2023-02-11T18:02:01.088Z,19.87
2023-02-11T18:04:29.322Z,22.87
2023-02-11T18:06:58.517Z,22.73
2023-02-11T18:09:27.370Z,23.63
2023-02-11T18:11:55.563Z,26.03
2023-02-11T18:14:24.117Z,25.67
2023-02-11T18:16:53.020Z,27.37
2023-02-11T18:19:22.560Z,26.90
2023-02-11T18:21:50.978Z,29.90
2023-02-11T18:24:19.620Z,27.00
2023-02-11T18:26:47.754Z,28.33
2023-02-11T18:29:17.125Z,31.87
2023-02-11T18:31:45.321Z,30.00
2023-02-11T18:34:14.215Z,30.30
2023-02-11T18:36:43.772Z,33.03
2023-02-11T18:39:11.829Z,30.40
2023-02-11T18:41:42.175Z,28.03
2023-02-11T18:44:11.847Z,28.67
2023-02-11T18:46:39.981Z,31.40
2023-02-11T18:49:09.814Z,32.80
2023-02-11T18:51:37.950Z,32.50
2023-02-11T18:54:07.464Z,32.47
2023-02-11T18:56:35.669Z,33.40
2023-02-11T18:59:03.866Z,33.57
2023-02-11T19:01:34.209Z,36.97
2023-02-11T19:04:05.278Z,33.83
2023-02-11T19:06:36.812Z,37.10
2023-02-11T19:09:11.138Z,35.97
2023-02-11T19:11:55.360Z,37.20
2023-02-11T19:14:26.102Z,36.70
2023-02-11T19:16:58.405Z,34.97
2023-02-11T19:19:29.811Z,39.30
2023-02-11T19:22:00.223Z,38.47
2023-02-11T19:24:30.785Z,34.83
2023-02-11T19:27:01.728Z,38.10
2023-02-11T19:29:33.350Z,35.83
2023-02-11T19:32:01.991Z,39.63
2023-02-11T19:34:30.229Z,43.00
2023-02-11T19:36:59.595Z,39.13
2023-02-11T19:39:29.418Z,41.43
2023-02-11T19:41:57.566Z,37.20
2023-02-11T19:44:25.770Z,41.87
2023-02-11T19:46:54.724Z,40.87
2023-02-11T19:49:25.820Z,41.27
2023-02-11T19:51:57.336Z,39.63
2023-02-11T19:54:27.333Z,42.30
2023-02-11T19:56:57.337Z,41.67
2023-02-11T19:59:25.840Z,42.30
2023-02-11T20:01:54.216Z,41.33
2023-02-11T20:04:24.580Z,37.43
2023-02-11T20:06:52.739Z,43.10
2023-02-11T20:09:21.688Z,44.43
2023-02-11T20:11:50.366Z,43.67
2023-02-11T20:14:19.874Z,45.80
2023-02-11T20:16:49.835Z,45.80
2023-02-11T20:19:21.167Z,44.23
2023-02-11T20:21:52.402Z,48.90
2023-02-11T20:24:21.562Z,44.70
2023-02-11T20:26:55.157Z,43.63
2023-02-11T20:29:25.804Z,44.80
2023-02-11T20:31:54.803Z,41.27
2023-02-11T20:34:23.320Z,42.37
2023-02-11T20:36:52.727Z,45.07
2023-02-11T20:39:22.789Z,43.20
2023-02-11T20:41:52.383Z,44.90
2023-02-11T20:44:21.692Z,46.47
2023-02-11T20:46:53.911Z,42.47
2023-02-11T20:49:25.316Z,47.93
2023-02-11T20:51:53.819Z,45.00
2023-02-11T20:54:23.555Z,45.97
2023-02-11T20:56:53.821Z,47.23
2023-02-11T20:59:23.058Z,42.47
2023-02-11T21:01:56.339Z,47.40
2023-02-11T21:04:26.857Z,47.20
2023-02-11T21:06:58.595Z,49.83
2023-02-11T21:09:32.348Z,42.93
2023-02-11T21:12:01.781Z,46.23
2023-02-11T21:14:31.075Z,44.90
2023-02-11T21:17:00.681Z,45.57
2023-02-11T21:19:28.886Z,43.80
2023-02-11T21:22:00.456Z,48.33
2023-02-11T21:24:30.726Z,48.87
2023-02-11T21:26:59.236Z,45.60
2023-02-11T21:29:27.348Z,44.63
2023-02-11T21:31:55.587Z,46.13
2023-02-11T21:34:25.228Z,41.97
2023-02-11T21:36:53.416Z,44.43
2023-02-11T21:39:21.650Z,45.87
2023-02-11T21:41:49.963Z,48.37
2023-02-11T21:44:18.057Z,51.57
2023-02-11T21:46:46.232Z,45.23
2023-02-11T21:49:14.410Z,49.87
2023-02-11T21:51:43.797Z,50.27
2023-02-11T21:54:12.791Z,44.17
2023-02-11T21:56:40.841Z,51.17
2023-02-11T21:59:08.897Z,47.17
2023-02-11T22:01:36.998Z,49.80
2023-02-11T22:04:05.956Z,44.30
2023-02-11T22:06:35.933Z,46.17
2023-02-11T22:09:07.796Z,45.90
2023-02-11T22:11:36.548Z,45.20
2023-02-11T22:14:06.096Z,45.23
2023-02-11T22:16:34.425Z,50.67
2023-02-11T22:19:03.332Z,48.50
2023-02-11T22:21:31.791Z,46.43
2023-02-11T22:23:59.980Z,41.43
2023-02-11T22:26:29.669Z,49.00
2023-02-11T22:28:58.199Z,49.50
2023-02-11T22:31:30.455Z,46.43
2023-02-11T22:33:59.884Z,46.17
2023-02-11T22:36:30.290Z,50.50
2023-02-11T22:39:02.651Z,46.67
2023-02-11T22:41:32.489Z,49.67
2023-02-11T22:44:00.651Z,47.03
2023-02-11T22:46:28.834Z,51.03
2023-02-11T22:48:57.137Z,47.60
2023-02-11T22:51:28.046Z,48.53
2023-02-11T22:53:58.823Z,47.77
2023-02-11T22:56:29.447Z,47.40
2023-02-11T22:59:01.581Z,49.23
2023-02-11T23:01:31.946Z,50.60
2023-02-11T23:04:03.323Z,50.10
2023-02-11T23:06:31.881Z,47.57
2023-02-11T23:09:00.333Z,50.20
2023-02-11T23:11:31.910Z,48.57
2023-02-11T23:14:02.830Z,45.97
2023-02-11T23:16:34.305Z,46.90
2023-02-11T23:19:04.488Z,47.53
2023-02-11T23:21:36.471Z,47.93
2023-02-11T23:24:08.016Z,48.17
2023-02-11T23:26:39.034Z,45.17
2023-02-11T23:29:09.069Z,51.00
2023-02-11T23:31:40.883Z,44.43
2023-02-11T23:34:09.927Z,47.07
2023-02-11T23:36:38.900Z,46.30
2023-02-11T23:39:07.309Z,44.27
2023-02-11T23:41:35.553Z,45.37
2023-02-11T23:44:03.759Z,47.17
2023-02-11T23:46:33.303Z,44.67
2023-02-11T23:49:01.650Z,43.40
2023-02-11T23:51:29.878Z,48.73
2023-02-11T23:53:58.078Z,46.37
2023-02-11T23:56:28.895Z,45.37
2023-02-11T23:58:59.367Z,44.37
